Terminal Aerodrome Forecast
Issued by NWS Albuquerque, NM

Home | Current Version | Previous Version | Text Only | Print | Product List | Glossary On
Versions: 1 2 3 4 5 6 7 8 9 10 11 12 13 14 15 16
000
FTUS45 KABQ 300539
TAFABQ
TAF
KABQ 300539Z 3006/3106 13006KT P6SM FEW150
     FM300900 VRB05KT P6SM FEW120 SCT150
     FM302030 24008KT P6SM SCT090
     FM310100 VRB06KT P6SM SCT100 SCT150 BKN250=

USA.gov is the U.S. government's official web portal to all federal, state and local government web resources and services.